Time;durP1;ratioP1;P1;durP2;ratioP2;P2;SDS_P1;SDS_P2;PMS_P1;PMS_P2;Temp;Humidity;BMP_temperature;BMP_pressure;BME280_temperature;BME280_humidity;BME280_pressure;Samples;Min_cycle;Max_cycle;Signal;HPM_P1;HPM_P2
2023/02/04 00:01:48;;;;;;;6.47;6.07;;;8.50;99.90;;;;;;5003708;28;20189;-62
2023/02/04 00:04:14;;;;;;;18.27;7.03;;;8.50;99.90;;;;;;5011530;28;20184;-62
2023/02/04 00:06:40;;;;;;;6.20;5.60;;;8.50;99.90;;;;;;5010973;28;20223;-62
2023/02/04 00:09:05;;;;;;;8.17;6.57;;;8.50;99.90;;;;;;5013669;28;20188;-61
2023/02/04 00:11:31;;;;;;;10.03;7.10;;;8.50;99.90;;;;;;5012513;28;20271;-62
2023/02/04 00:13:57;;;;;;;5.43;5.23;;;8.50;99.90;;;;;;5013544;28;20187;-62
2023/02/04 00:16:22;;;;;;;6.93;6.00;;;8.50;99.90;;;;;;5013095;28;20232;-62
2023/02/04 00:18:48;;;;;;;8.23;5.80;;;8.40;99.90;;;;;;5012831;28;20200;-61
2023/02/04 00:21:14;;;;;;;10.57;6.10;;;8.40;99.90;;;;;;5012387;28;20180;-62
2023/02/04 00:23:40;;;;;;;7.53;5.50;;;8.40;99.90;;;;;;5011440;28;20719;-62
2023/02/04 00:26:05;;;;;;;7.07;6.10;;;8.40;99.90;;;;;;5012588;28;20222;-62
2023/02/04 00:28:31;;;;;;;7.10;6.43;;;8.40;99.90;;;;;;5006140;28;20642;-62
2023/02/04 00:30:56;;;;;;;14.03;6.50;;;8.40;99.90;;;;;;5011098;28;20184;-62
2023/02/04 00:33:22;;;;;;;6.00;5.30;;;8.40;99.90;;;;;;5013425;28;20172;-62
2023/02/04 00:35:48;;;;;;;12.17;6.83;;;8.40;99.90;;;;;;5012731;28;20196;-62
2023/02/04 00:38:13;;;;;;;6.93;6.30;;;8.40;99.90;;;;;;5011100;28;20176;-62
2023/02/04 00:40:39;;;;;;;7.00;6.40;;;8.30;99.90;;;;;;5004012;28;20600;-62
2023/02/04 00:43:05;;;;;;;8.10;6.83;;;8.30;99.90;;;;;;5013133;28;20260;-62
2023/02/04 00:45:30;;;;;;;6.57;6.23;;;8.30;99.90;;;;;;5012539;28;20210;-62
2023/02/04 00:47:56;;;;;;;5.73;5.40;;;8.30;99.90;;;;;;5012381;28;20470;-62
2023/02/04 00:50:22;;;;;;;11.37;6.80;;;8.30;99.90;;;;;;5011970;28;20176;-62
2023/02/04 00:52:47;;;;;;;6.80;6.00;;;8.30;99.90;;;;;;5012684;28;20176;-61
2023/02/04 00:55:15;;;;;;;6.70;6.10;;;8.30;99.90;;;;;;5012640;28;20200;-61
2023/02/04 00:57:41;;;;;;;8.30;6.03;;;8.20;99.90;;;;;;5008320;28;20535;-62
2023/02/04 01:00:08;;;;;;;13.53;7.23;;;8.20;99.90;;;;;;5010427;28;20211;-62
2023/02/04 01:02:33;;;;;;;7.53;5.77;;;8.20;99.90;;;;;;5012739;28;20188;-62
2023/02/04 01:04:59;;;;;;;18.67;6.73;;;8.20;99.90;;;;;;5010718;28;20653;-62
2023/02/04 01:07:24;;;;;;;6.23;5.93;;;8.20;99.90;;;;;;5003908;28;20186;-62
2023/02/04 01:09:50;;;;;;;7.17;6.67;;;8.20;99.90;;;;;;5012076;28;20188;-62
2023/02/04 01:12:15;;;;;;;6.73;6.07;;;8.20;99.90;;;;;;5010705;28;20180;-62
2023/02/04 01:14:41;;;;;;;5.53;5.30;;;8.10;99.90;;;;;;5011498;28;20215;-62
2023/02/04 01:17:07;;;;;;;7.47;6.67;;;8.10;99.90;;;;;;5012629;28;20184;-62
2023/02/04 01:19:32;;;;;;;7.17;6.73;;;8.00;99.90;;;;;;5003399;28;20298;-62
2023/02/04 01:21:58;;;;;;;10.40;6.50;;;8.10;99.90;;;;;;5011949;28;20714;-62
2023/02/04 01:24:23;;;;;;;11.57;6.93;;;8.10;99.90;;;;;;5009605;28;20173;-61
2023/02/04 01:26:49;;;;;;;8.93;6.77;;;8.10;99.90;;;;;;5012340;28;20203;-62
2023/02/04 01:29:15;;;;;;;8.10;6.40;;;8.10;99.90;;;;;;5011161;28;20180;-62
2023/02/04 01:31:40;;;;;;;11.10;6.33;;;8.10;99.90;;;;;;5011482;28;20268;-64
2023/02/04 01:34:06;;;;;;;8.50;6.60;;;8.10;99.90;;;;;;5010819;28;20229;-62
2023/02/04 01:36:31;;;;;;;7.17;6.43;;;8.10;99.90;;;;;;4999660;28;20684;-62
2023/02/04 01:38:59;;;;;;;20.50;7.73;;;8.00;99.90;;;;;;5006510;28;20295;-62
2023/02/04 01:41:25;;;;;;;6.50;5.97;;;8.00;99.90;;;;;;5011395;28;20180;-62
2023/02/04 01:43:51;;;;;;;7.23;6.37;;;8.10;99.90;;;;;;5011072;28;20219;-62
2023/02/04 01:46:17;;;;;;;7.87;6.63;;;8.00;99.90;;;;;;5012018;28;20220;-62
2023/02/04 01:48:43;;;;;;;15.77;7.13;;;8.00;99.90;;;;;;5007798;28;20661;-61
2023/02/04 01:51:12;;;;;;;7.17;6.63;;;8.00;99.90;;;;;;5010110;28;20630;-62
2023/02/04 01:53:38;;;;;;;7.10;5.93;;;8.00;99.90;;;;;;5009698;28;20192;-62
2023/02/04 01:56:17;;;;;;;15.40;8.30;;;8.00;99.90;;;;;;5010891;28;20243;-62
2023/02/04 01:58:43;;;;;;;17.20;6.40;;;7.90;99.90;;;;;;5004613;28;20222;-62
2023/02/04 02:01:15;;;;;;;8.77;6.73;;;7.90;99.90;;;;;;5010166;28;20263;-63
2023/02/04 02:03:41;;;;;;;8.10;7.57;;;7.90;99.90;;;;;;5010680;28;20176;-62
2023/02/04 02:06:09;;;;;;;9.30;6.70;;;7.90;99.90;;;;;;5010460;28;20317;-62
2023/02/04 02:08:35;;;;;;;9.63;7.10;;;7.90;99.90;;;;;;5010941;28;20271;-63
2023/02/04 02:11:01;;;;;;;10.50;6.47;;;7.90;99.90;;;;;;5010929;28;20176;-63
2023/02/04 02:13:27;;;;;;;11.07;6.60;;;7.90;99.90;;;;;;5010791;28;20180;-63
2023/02/04 02:15:53;;;;;;;6.67;6.27;;;7.90;99.90;;;;;;5004495;28;20216;-63
2023/02/04 02:18:18;;;;;;;6.73;6.33;;;7.90;99.90;;;;;;5003357;28;20180;-63
2023/02/04 02:20:44;;;;;;;6.63;5.67;;;7.90;99.90;;;;;;5005147;28;20258;-63
2023/02/04 02:23:16;;;;;;;7.70;6.40;;;7.90;99.90;;;;;;5010358;28;20180;-62
2023/02/04 02:25:42;;;;;;;6.43;5.93;;;7.90;99.90;;;;;;5011541;28;20638;-62
2023/02/04 02:28:14;;;;;;;7.27;6.73;;;7.90;99.90;;;;;;5010694;28;20216;-63
2023/02/04 02:30:44;;;;;;;7.70;6.80;;;7.80;99.90;;;;;;5005808;28;20269;-62
2023/02/04 02:33:10;;;;;;;6.90;6.27;;;7.80;99.90;;;;;;5006642;28;20190;-62
2023/02/04 02:35:36;;;;;;;7.50;7.00;;;7.80;99.90;;;;;;5009054;28;20295;-62
2023/02/04 02:38:02;;;;;;;6.97;6.47;;;7.80;99.90;;;;;;5009367;28;20597;-62
2023/02/04 02:40:27;;;;;;;7.23;5.87;;;7.80;99.90;;;;;;5009579;28;20204;-62
2023/02/04 02:42:54;;;;;;;7.20;6.23;;;7.80;99.90;;;;;;5010461;28;20184;-62
2023/02/04 02:45:29;;;;;;;8.27;6.73;;;7.80;99.90;;;;;;5002547;28;20231;-63
2023/02/04 02:47:57;;;;;;;7.20;6.47;;;7.80;99.90;;;;;;5009363;28;20191;-63
2023/02/04 02:50:26;;;;;;;11.20;7.20;;;7.80;99.90;;;;;;5010848;28;20271;-62
2023/02/04 02:52:53;;;;;;;9.23;7.37;;;7.80;99.90;;;;;;5008583;28;20180;-62
2023/02/04 02:55:22;;;;;;;12.67;7.70;;;7.80;99.90;;;;;;5010692;28;20195;-62
2023/02/04 02:57:49;;;;;;;10.13;8.30;;;7.80;99.90;;;;;;5009528;28;20181;-63
2023/02/04 03:00:19;;;;;;;8.80;8.30;;;7.70;99.90;;;;;;5010485;28;20208;-62
2023/02/04 03:03:00;;;;;;;7.50;6.90;;;7.70;99.90;;;;;;5010632;28;20184;-62
2023/02/04 03:05:29;;;;;;;8.07;7.47;;;7.70;99.90;;;;;;5005936;28;20216;-62
2023/02/04 03:07:54;;;;;;;8.00;7.20;;;7.70;99.90;;;;;;5009024;28;20188;-62
2023/02/04 03:10:20;;;;;;;10.13;6.67;;;7.70;99.90;;;;;;5010671;28;20677;-63
2023/02/04 03:12:46;;;;;;;7.30;6.70;;;7.70;99.90;;;;;;5010012;28;20577;-62
2023/02/04 03:15:13;;;;;;;6.70;6.23;;;7.70;99.90;;;;;;5010331;28;20196;-63
2023/02/04 03:17:40;;;;;;;19.60;6.70;;;7.70;99.90;;;;;;5014025;28;20239;-62
2023/02/04 03:20:06;;;;;;;7.00;6.50;;;7.70;99.90;;;;;;5013743;28;20291;-63
2023/02/04 03:22:32;;;;;;;9.60;7.90;;;7.70;99.90;;;;;;5015112;28;20646;-63
2023/02/04 03:24:58;;;;;;;7.03;6.00;;;7.70;99.90;;;;;;5013318;28;20633;-63
2023/02/04 03:27:24;;;;;;;6.73;6.40;;;7.60;99.90;;;;;;5013150;28;20172;-63
2023/02/04 03:29:50;;;;;;;8.23;6.17;;;7.60;99.90;;;;;;5012164;28;20263;-63
2023/02/04 03:32:16;;;;;;;8.03;7.53;;;7.60;99.90;;;;;;5012711;28;20673;-63
2023/02/04 03:34:41;;;;;;;8.17;7.57;;;7.60;99.90;;;;;;5012212;28;20208;-63
2023/02/04 03:37:07;;;;;;;9.53;6.67;;;7.60;99.90;;;;;;5011580;28;20184;-63
2023/02/04 03:39:33;;;;;;;6.77;6.47;;;7.60;99.90;;;;;;5013478;28;20604;-63
2023/02/04 03:41:59;;;;;;;10.43;6.03;;;7.60;99.90;;;;;;5013090;28;20187;-63
2023/02/04 03:44:25;;;;;;;6.83;6.43;;;7.60;99.90;;;;;;5013791;28;20188;-63
2023/02/04 03:46:54;;;;;;;10.40;6.50;;;7.60;99.90;;;;;;5012935;28;20601;-63
2023/02/04 03:49:20;;;;;;;6.03;5.73;;;7.60;99.90;;;;;;5012723;28;20539;-63
2023/02/04 03:51:46;;;;;;;6.83;6.43;;;7.50;99.90;;;;;;5013247;28;20315;-63
2023/02/04 03:54:12;;;;;;;7.50;6.77;;;7.50;99.90;;;;;;5013173;28;20749;-63
2023/02/04 03:56:38;;;;;;;18.97;6.87;;;7.50;99.90;;;;;;5008726;28;20208;-63
2023/02/04 03:59:04;;;;;;;9.50;6.53;;;7.50;99.90;;;;;;5010448;28;20230;-62
2023/02/04 04:01:29;;;;;;;7.03;6.43;;;7.40;99.90;;;;;;5013924;28;20626;-63
2023/02/04 04:03:55;;;;;;;7.70;6.97;;;7.40;99.90;;;;;;5009760;28;20638;-63
2023/02/04 04:06:20;;;;;;;7.30;7.00;;;7.30;99.90;;;;;;5013500;28;20693;-63
2023/02/04 04:08:46;;;;;;;9.60;7.13;;;7.30;99.90;;;;;;5012587;28;20254;-63
2023/02/04 04:11:12;;;;;;;12.13;6.23;;;7.30;99.90;;;;;;5013036;28;20550;-63
2023/02/04 04:13:37;;;;;;;11.70;6.40;;;7.20;99.90;;;;;;5012478;28;20184;-63
2023/02/04 04:16:03;;;;;;;9.63;5.87;;;7.20;99.90;;;;;;5013232;28;20204;-63
2023/02/04 04:18:31;;;;;;;7.00;6.40;;;7.20;99.90;;;;;;5012610;28;20186;-63
2023/02/04 04:20:57;;;;;;;6.47;6.10;;;7.20;99.90;;;;;;5008098;28;20208;-63
2023/02/04 04:23:23;;;;;;;5.93;5.53;;;7.20;99.90;;;;;;5011619;28;20685;-63
2023/02/04 04:25:48;;;;;;;17.13;6.90;;;7.10;99.90;;;;;;5012906;28;20271;-63
2023/02/04 04:28:14;;;;;;;11.77;6.83;;;7.10;99.90;;;;;;5010616;28;20176;-63
2023/02/04 04:30:39;;;;;;;6.27;5.90;;;7.10;99.90;;;;;;5005676;28;20267;-63
2023/02/04 04:33:05;;;;;;;5.37;4.97;;;7.10;99.90;;;;;;5003640;28;20188;-63
2023/02/04 04:35:31;;;;;;;8.10;5.40;;;7.00;99.90;;;;;;5005143;28;20622;-63
2023/02/04 04:37:56;;;;;;;6.13;5.73;;;7.00;99.90;;;;;;5010219;28;20188;-63
2023/02/04 04:40:22;;;;;;;8.63;6.40;;;7.10;99.90;;;;;;5011136;28;20580;-63
2023/02/04 04:42:47;;;;;;;6.47;6.07;;;7.10;99.90;;;;;;5012460;28;20233;-63
2023/02/04 04:45:13;;;;;;;6.67;6.13;;;7.00;99.90;;;;;;5012560;28;20208;-63
2023/02/04 04:47:39;;;;;;;6.90;6.30;;;7.00;99.90;;;;;;5012532;28;20210;-63
2023/02/04 04:50:05;;;;;;;5.50;5.30;;;7.00;99.90;;;;;;5012236;28;20191;-63
2023/02/04 04:52:30;;;;;;;10.13;6.13;;;7.00;99.90;;;;;;5013076;28;20622;-63
2023/02/04 04:54:56;;;;;;;6.43;5.93;;;7.00;99.90;;;;;;5010433;28;20204;-63
2023/02/04 04:57:21;;;;;;;8.63;5.93;;;7.00;99.90;;;;;;5012817;28;20195;-63
2023/02/04 04:59:47;;;;;;;5.30;5.00;;;7.00;99.90;;;;;;5011348;28;20289;-64
2023/02/04 05:02:13;;;;;;;6.27;5.97;;;7.00;99.90;;;;;;5008103;28;20624;-63
2023/02/04 05:04:38;;;;;;;17.13;6.00;;;7.00;99.90;;;;;;5011789;28;20219;-63
2023/02/04 05:07:04;;;;;;;5.83;5.37;;;6.90;99.90;;;;;;5012809;28;20176;-63
2023/02/04 05:09:29;;;;;;;6.77;6.20;;;6.90;99.90;;;;;;5010040;28;20295;-63
2023/02/04 05:11:55;;;;;;;7.83;7.23;;;6.90;99.90;;;;;;5011385;28;20184;-63
2023/02/04 05:14:21;;;;;;;8.17;6.60;;;6.90;99.90;;;;;;5011568;28;20238;-63
2023/02/04 05:16:46;;;;;;;7.10;6.50;;;6.90;99.90;;;;;;5012066;28;20287;-63
2023/02/04 05:19:12;;;;;;;6.20;5.70;;;6.90;99.90;;;;;;5008755;28;20635;-63
2023/02/04 05:21:37;;;;;;;10.07;6.00;;;6.90;99.90;;;;;;5011059;28;20263;-68
2023/02/04 05:24:05;;;;;;;7.40;6.40;;;6.80;99.90;;;;;;5012354;28;20242;-69
2023/02/04 05:26:31;;;;;;;7.13;5.90;;;6.80;99.90;;;;;;5005814;28;20242;-68
2023/02/04 05:28:59;;;;;;;6.47;6.07;;;6.80;99.90;;;;;;5011944;28;20614;-68
2023/02/04 05:31:24;;;;;;;5.83;5.47;;;6.80;99.90;;;;;;5013030;28;20176;-68
2023/02/04 05:33:50;;;;;;;5.97;5.63;;;6.80;99.90;;;;;;5011401;28;20657;-67
2023/02/04 05:36:16;;;;;;;7.50;6.03;;;6.70;99.90;;;;;;5012888;28;20200;-67
2023/02/04 05:38:42;;;;;;;9.13;5.73;;;6.70;99.90;;;;;;5009894;28;20547;-67
2023/02/04 05:41:08;;;;;;;12.97;5.97;;;6.60;99.90;;;;;;5013118;28;20226;-67
2023/02/04 05:43:34;;;;;;;5.93;5.43;;;6.60;99.90;;;;;;5010837;28;20703;-65
2023/02/04 05:46:00;;;;;;;9.97;5.97;;;6.50;99.90;;;;;;5012382;28;20200;-66
2023/02/04 05:48:25;;;;;;;6.83;6.40;;;6.60;99.90;;;;;;5012278;28;20187;-68
2023/02/04 05:50:51;;;;;;;6.17;5.87;;;6.50;99.90;;;;;;5013038;28;20172;-68
2023/02/04 05:53:17;;;;;;;5.47;5.23;;;6.50;99.90;;;;;;5012033;28;20195;-64
2023/02/04 05:55:42;;;;;;;6.00;5.50;;;6.50;99.90;;;;;;5013568;28;20203;-67
2023/02/04 05:58:08;;;;;;;5.70;5.30;;;6.50;99.90;;;;;;5011623;28;20534;-70
2023/02/04 06:00:34;;;;;;;6.77;5.80;;;6.50;99.90;;;;;;5012318;28;20204;-68
2023/02/04 06:02:59;;;;;;;5.67;5.37;;;6.50;99.90;;;;;;5007541;28;20185;-68
2023/02/04 06:05:25;;;;;;;6.03;5.30;;;6.50;99.90;;;;;;5011978;28;20891;-69
2023/02/04 06:07:51;;;;;;;6.93;5.83;;;6.50;99.90;;;;;;5010243;28;20222;-66
2023/02/04 06:10:16;;;;;;;6.93;6.03;;;6.50;99.90;;;;;;5011961;28;20180;-65
2023/02/04 06:12:42;;;;;;;6.80;5.57;;;6.50;99.90;;;;;;5010209;28;20622;-67
2023/02/04 06:15:08;;;;;;;8.00;7.27;;;6.50;99.90;;;;;;5012124;28;20199;-65
2023/02/04 06:17:34;;;;;;;11.97;6.07;;;6.50;99.90;;;;;;5012511;28;20184;-67
2023/02/04 06:20:00;;;;;;;11.43;6.97;;;6.50;99.90;;;;;;5009885;28;20257;-66
2023/02/04 06:22:25;;;;;;;6.53;5.40;;;6.50;99.90;;;;;;5010275;28;20276;-67
2023/02/04 06:24:51;;;;;;;9.00;7.03;;;6.60;99.90;;;;;;5012822;28;20204;-65
2023/02/04 06:27:22;;;;;;;6.97;6.47;;;6.50;99.90;;;;;;5012230;28;20180;-65
2023/02/04 06:29:49;;;;;;;6.50;5.90;;;6.50;99.90;;;;;;4999329;28;20551;-63
2023/02/04 06:32:15;;;;;;;7.10;6.43;;;6.50;99.90;;;;;;5007289;28;20191;-63
2023/02/04 06:34:41;;;;;;;7.97;5.87;;;6.60;99.90;;;;;;5010993;28;20176;-63
2023/02/04 06:37:06;;;;;;;10.77;7.07;;;6.60;99.90;;;;;;5006196;28;20188;-62
2023/02/04 06:39:32;;;;;;;10.90;6.40;;;6.60;99.90;;;;;;5009742;28;20262;-63
2023/02/04 06:41:57;;;;;;;22.03;7.20;;;6.60;99.90;;;;;;5007309;28;20180;-62
2023/02/04 06:44:23;;;;;;;10.83;5.73;;;6.60;99.90;;;;;;5011137;28;20671;-63
2023/02/04 06:46:49;;;;;;;14.63;9.87;;;6.70;99.90;;;;;;5010554;28;20214;-63
2023/02/04 06:49:14;;;;;;;7.97;6.23;;;6.60;99.90;;;;;;5009093;28;20191;-64
2023/02/04 06:51:40;;;;;;;15.00;7.40;;;6.60;99.90;;;;;;5013837;28;20792;-61
2023/02/04 06:54:05;;;;;;;12.30;8.27;;;6.70;99.90;;;;;;5013612;28;20184;-63
2023/02/04 06:56:31;;;;;;;14.23;5.70;;;6.70;99.90;;;;;;5014091;28;20290;-63
2023/02/04 06:58:56;;;;;;;10.07;6.83;;;6.70;99.90;;;;;;5010874;28;20208;-63
2023/02/04 07:01:22;;;;;;;11.93;6.07;;;6.70;99.90;;;;;;5013773;28;20176;-62
2023/02/04 07:03:48;;;;;;;15.63;8.30;;;6.70;99.90;;;;;;5013642;28;20172;-62
2023/02/04 07:06:13;;;;;;;14.37;9.00;;;6.60;99.90;;;;;;5013728;28;20226;-62
2023/02/04 07:08:39;;;;;;;55.53;32.83;;;6.70;99.90;;;;;;5008080;28;20560;-62
2023/02/04 07:11:04;;;;;;;22.37;16.80;;;6.70;99.90;;;;;;5014043;28;20188;-62
2023/02/04 07:13:30;;;;;;;11.67;9.40;;;6.70;99.90;;;;;;5013034;28;20180;-62
2023/02/04 07:15:55;;;;;;;15.70;8.33;;;6.70;99.90;;;;;;5012851;28;20196;-62
2023/02/04 07:18:21;;;;;;;7.17;6.67;;;6.70;99.90;;;;;;5012324;28;20195;-62
2023/02/04 07:20:47;;;;;;;6.70;6.20;;;6.70;99.90;;;;;;5013212;28;20246;-63
2023/02/04 07:23:12;;;;;;;15.53;6.80;;;6.70;99.90;;;;;;5012230;28;20196;-63
2023/02/04 07:25:38;;;;;;;8.63;6.67;;;6.60;99.90;;;;;;5013765;28;20204;-63
2023/02/04 07:28:04;;;;;;;12.33;7.67;;;6.60;99.90;;;;;;5013954;28;20207;-63
2023/02/04 07:30:30;;;;;;;6.93;6.40;;;6.60;99.90;;;;;;5013693;28;20279;-63
2023/02/04 07:32:56;;;;;;;7.77;6.97;;;6.60;99.90;;;;;;5010540;28;20184;-63
2023/02/04 07:35:23;;;;;;;9.90;6.20;;;6.70;99.90;;;;;;5010013;28;20262;-63
2023/02/04 07:37:48;;;;;;;7.03;6.53;;;6.70;99.90;;;;;;5012289;28;20275;-63
2023/02/04 07:40:14;;;;;;;6.73;6.27;;;6.70;99.90;;;;;;5012029;28;20215;-63
2023/02/04 07:42:40;;;;;;;7.07;6.47;;;6.80;99.90;;;;;;5005398;28;20242;-64
2023/02/04 07:45:06;;;;;;;10.30;6.37;;;6.80;99.90;;;;;;5008772;28;20208;-63
2023/02/04 07:47:32;;;;;;;7.27;6.67;;;6.80;99.90;;;;;;5005712;28;20180;-64
2023/02/04 07:49:57;;;;;;;7.17;6.63;;;6.90;99.90;;;;;;5013465;28;20179;-64
2023/02/04 07:52:24;;;;;;;8.73;7.00;;;7.00;99.90;;;;;;5003558;28;20674;-63
2023/02/04 07:54:51;;;;;;;6.77;6.37;;;7.00;99.90;;;;;;5013670;28;20204;-63
2023/02/04 07:57:17;;;;;;;13.40;7.03;;;7.00;99.90;;;;;;5010694;28;20274;-63
2023/02/04 07:59:42;;;;;;;16.93;6.67;;;7.10;99.90;;;;;;5013065;28;20642;-63
2023/02/04 08:02:09;;;;;;;7.27;6.63;;;7.10;99.90;;;;;;5006211;28;20304;-63
2023/02/04 08:04:35;;;;;;;7.07;6.50;;;7.20;99.90;;;;;;5010340;28;20180;-63
2023/02/04 08:07:00;;;;;;;16.70;6.27;;;7.20;99.90;;;;;;5011378;28;20195;-63
2023/02/04 08:09:26;;;;;;;18.73;6.80;;;7.20;99.90;;;;;;5007810;28;20180;-63
2023/02/04 08:11:52;;;;;;;20.33;7.10;;;7.30;99.90;;;;;;5012770;28;20188;-63
2023/02/04 08:14:17;;;;;;;7.70;7.00;;;7.40;99.90;;;;;;5011374;28;20180;-63
2023/02/04 08:16:43;;;;;;;8.10;7.27;;;7.40;99.90;;;;;;5009495;28;20204;-64
2023/02/04 08:19:08;;;;;;;8.97;7.73;;;7.50;99.90;;;;;;5004242;28;20729;-64
2023/02/04 08:21:35;;;;;;;15.63;6.10;;;7.50;99.90;;;;;;5013221;28;20196;-64
2023/02/04 08:24:00;;;;;;;6.63;6.03;;;7.60;99.90;;;;;;5009986;28;20204;-64
2023/02/04 08:26:26;;;;;;;13.43;7.93;;;7.70;99.90;;;;;;5010373;28;20238;-64
2023/02/04 08:28:52;;;;;;;10.87;7.73;;;7.80;99.90;;;;;;5012826;28;20188;-64
2023/02/04 08:31:17;;;;;;;10.80;6.70;;;7.90;99.90;;;;;;5009707;28;20680;-63
2023/02/04 08:33:43;;;;;;;18.10;7.40;;;7.90;99.90;;;;;;5011666;28;20172;-63
2023/02/04 08:36:09;;;;;;;11.03;8.90;;;8.00;99.90;;;;;;5012669;28;20228;-64
2023/02/04 08:38:34;;;;;;;11.97;7.33;;;8.10;99.90;;;;;;5012900;28;20238;-64
2023/02/04 08:41:00;;;;;;;11.30;6.20;;;8.10;99.90;;;;;;5012668;28;20172;-64
2023/02/04 08:43:26;;;;;;;8.83;6.20;;;8.10;99.90;;;;;;5012858;28;20172;-64
2023/02/04 08:45:51;;;;;;;6.93;6.43;;;8.10;99.90;;;;;;5013014;28;20188;-64
2023/02/04 08:48:17;;;;;;;18.40;6.43;;;8.10;99.90;;;;;;5016568;28;20547;-64
2023/02/04 08:50:42;;;;;;;10.77;7.23;;;8.20;99.90;;;;;;5012981;28;20176;-64
2023/02/04 08:53:08;;;;;;;19.10;7.00;;;8.30;99.90;;;;;;5012721;28;20696;-64
2023/02/04 08:55:34;;;;;;;15.23;7.20;;;8.30;99.90;;;;;;5013020;28;20246;-64
2023/02/04 08:58:00;;;;;;;11.97;7.27;;;8.40;99.90;;;;;;5012423;28;20254;-64
2023/02/04 09:00:26;;;;;;;9.77;6.40;;;8.40;99.90;;;;;;5012634;28;20348;-64
2023/02/04 09:02:52;;;;;;;7.70;7.03;;;8.50;99.90;;;;;;5012544;28;20608;-64
2023/02/04 09:05:17;;;;;;;13.63;7.90;;;8.60;99.90;;;;;;5012933;28;20274;-64
2023/02/04 09:07:43;;;;;;;11.10;8.33;;;8.70;99.90;;;;;;5012717;28;20594;-64
2023/02/04 09:10:09;;;;;;;7.37;6.50;;;8.80;99.90;;;;;;5012210;28;20263;-64
2023/02/04 09:12:34;;;;;;;18.93;7.17;;;8.90;99.90;;;;;;5012277;28;20187;-63
2023/02/04 09:15:00;;;;;;;8.10;7.10;;;9.10;99.90;;;;;;5011254;28;20188;-64
2023/02/04 09:17:25;;;;;;;15.43;8.10;;;9.30;99.90;;;;;;5012525;28;20638;-63
2023/02/04 09:19:51;;;;;;;13.87;7.47;;;9.40;99.90;;;;;;5012106;28;20576;-64
2023/02/04 09:22:16;;;;;;;8.10;7.30;;;9.30;99.90;;;;;;5012323;28;20215;-64
2023/02/04 09:24:42;;;;;;;11.60;7.70;;;9.40;99.90;;;;;;5009765;28;20184;-64
2023/02/04 09:27:08;;;;;;;13.23;7.87;;;9.40;99.90;;;;;;5011245;28;20639;-64
2023/02/04 09:29:33;;;;;;;14.13;6.87;;;9.30;99.90;;;;;;5008806;28;20270;-64
2023/02/04 09:31:59;;;;;;;13.77;7.60;;;9.20;99.90;;;;;;5010185;28;20219;-63
2023/02/04 09:34:24;;;;;;;10.77;8.00;;;9.20;99.90;;;;;;5011185;28;20180;-63
2023/02/04 09:36:50;;;;;;;13.93;8.33;;;9.20;99.90;;;;;;5010645;28;20207;-64
2023/02/04 09:39:15;;;;;;;10.83;7.90;;;9.20;99.90;;;;;;5009368;28;20214;-64
2023/02/04 09:41:41;;;;;;;7.47;6.83;;;9.20;99.90;;;;;;5011093;28;20180;-63
2023/02/04 09:44:15;;;;;;;8.47;6.90;;;9.20;99.90;;;;;;5012187;28;20183;-63
2023/02/04 09:46:46;;;;;;;10.07;6.73;;;9.20;99.90;;;;;;5012270;28;20665;-64
2023/02/04 09:49:11;;;;;;;12.47;9.00;;;9.20;99.90;;;;;;4996408;28;20211;-63
2023/02/04 09:51:37;;;;;;;7.67;6.93;;;9.10;99.90;;;;;;5012188;28;20634;-64
2023/02/04 09:54:12;;;;;;;13.30;8.27;;;9.10;99.90;;;;;;5011610;28;20176;-63
2023/02/04 09:56:38;;;;;;;8.40;7.70;;;9.10;99.90;;;;;;5005100;28;20226;-64
2023/02/04 09:59:13;;;;;;;14.10;8.33;;;9.00;99.90;;;;;;5011031;28;20677;-64
2023/02/04 10:01:39;;;;;;;11.33;8.10;;;9.00;99.90;;;;;;5011824;28;20183;-64
2023/02/04 10:04:09;;;;;;;26.50;8.90;;;9.10;99.90;;;;;;5011899;28;20614;-64
2023/02/04 10:06:36;;;;;;;11.87;7.80;;;9.20;99.90;;;;;;5007036;28;20291;-64
2023/02/04 10:09:02;;;;;;;8.50;7.20;;;9.30;99.90;;;;;;5007870;28;20708;-63
2023/02/04 10:11:37;;;;;;;11.23;6.83;;;9.40;99.90;;;;;;5011537;28;20184;-63
2023/02/04 10:14:03;;;;;;;7.47;6.90;;;9.40;99.90;;;;;;5011801;28;20176;-63
2023/02/04 10:16:33;;;;;;;17.60;7.10;;;9.40;99.90;;;;;;5005896;28;20307;-63
2023/02/04 10:19:02;;;;;;;11.20;8.13;;;9.40;99.90;;;;;;5006513;28;20246;-64
2023/02/04 10:21:31;;;;;;;12.87;7.83;;;9.40;99.90;;;;;;5011118;28;20183;-64
2023/02/04 10:24:00;;;;;;;9.80;8.20;;;9.50;99.90;;;;;;5011216;28;20168;-64
2023/02/04 10:26:28;;;;;;;14.90;9.10;;;9.50;99.90;;;;;;5010525;28;20196;-64
2023/02/04 10:29:05;;;;;;;11.50;9.13;;;9.70;99.90;;;;;;5006765;28;20180;-64
2023/02/04 10:31:36;;;;;;;8.13;7.33;;;9.80;99.90;;;;;;5003615;28;20164;-64
2023/02/04 10:34:20;;;;;;;16.23;9.30;;;9.70;99.90;;;;;;5011576;28;20164;-64
2023/02/04 10:36:49;;;;;;;12.40;10.40;;;9.60;99.90;;;;;;5011751;28;20207;-64
2023/02/04 10:39:21;;;;;;;15.67;9.17;;;9.50;99.90;;;;;;5003459;28;20214;-64
2023/02/04 10:41:54;;;;;;;23.50;10.27;;;9.40;99.90;;;;;;5010084;28;20196;-64
2023/02/04 10:44:25;;;;;;;14.57;10.60;;;9.40;99.90;;;;;;5011432;28;20653;-64
2023/02/04 10:47:06;;;;;;;22.17;9.57;;;9.40;99.90;;;;;;5010987;28;20198;-63
2023/02/04 10:49:32;;;;;;;14.13;10.67;;;9.50;99.90;;;;;;5010931;28;20661;-64
2023/02/04 10:51:58;;;;;;;26.67;9.93;;;9.50;99.90;;;;;;5010996;28;20199;-64
2023/02/04 10:54:37;;;;;;;14.03;9.93;;;9.70;99.90;;;;;;5011310;28;20211;-64
2023/02/04 10:57:06;;;;;;;32.50;10.07;;;9.70;99.90;;;;;;5011123;28;20578;-64
2023/02/04 10:59:32;;;;;;;21.17;10.67;;;9.70;99.90;;;;;;5011126;28;20200;-63
2023/02/04 11:01:59;;;;;;;16.43;9.33;;;9.70;99.90;;;;;;5010891;28;20175;-64
2023/02/04 11:04:27;;;;;;;30.13;9.50;;;9.90;99.90;;;;;;5011099;28;20176;-64
2023/02/04 11:06:54;;;;;;;23.30;9.77;;;10.20;99.90;;;;;;5011263;28;20534;-64
2023/02/04 11:09:20;;;;;;;17.13;6.63;;;10.50;99.90;;;;;;5011048;28;20173;-64
2023/02/04 11:11:48;;;;;;;22.93;8.90;;;10.90;99.90;;;;;;5011008;28;20183;-64
2023/02/04 11:14:22;;;;;;;15.13;8.77;;;11.20;99.90;;;;;;5011274;28;20211;-64
2023/02/04 11:16:48;;;;;;;17.17;9.07;;;11.40;96.00;;;;;;5011070;28;20200;-64
2023/02/04 11:19:15;;;;;;;19.93;9.00;;;11.90;99.90;;;;;;5009041;28;20585;-64
2023/02/04 11:21:44;;;;;;;14.30;8.80;;;12.40;1.00;;;;;;5011028;28;20539;-64
2023/02/04 11:24:15;;;;;;;16.83;7.90;;;12.50;1.00;;;;;;5010966;28;20247;-64
2023/02/04 11:26:44;;;;;;;17.17;7.23;;;12.80;1.00;;;;;;5011095;28;20558;-64
2023/02/04 11:29:39;;;;;;;11.73;8.40;;;13.20;1.00;;;;;;5010800;28;20180;-64
2023/02/04 11:32:26;;;;;;;14.27;8.47;;;13.60;1.00;;;;;;5010796;28;20184;-64
2023/02/04 11:34:53;;;;;;;15.57;7.63;;;14.00;1.00;;;;;;5010799;28;20227;-64
2023/02/04 11:37:36;;;;;;;18.47;8.60;;;13.80;1.00;;;;;;5014555;28;20180;-64
2023/02/04 11:40:28;;;;;;;13.67;8.17;;;13.80;1.00;;;;;;5013836;28;20207;-64
2023/02/04 11:43:12;;;;;;;12.27;7.93;;;13.70;1.00;;;;;;5014354;28;20188;-64
2023/02/04 11:45:39;;;;;;;14.90;7.07;;;13.50;1.00;;;;;;5014366;28;20272;-64
2023/02/04 11:48:18;;;;;;;11.33;7.37;;;13.50;1.00;;;;;;5014359;28;20673;-64
2023/02/04 11:50:58;;;;;;;13.80;7.07;;;13.50;1.00;;;;;;5014002;28;20222;-64
2023/02/04 11:53:31;;;;;;;11.10;7.70;;;13.60;1.00;;;;;;5014054;28;20183;-64
2023/02/04 11:55:57;;;;;;;9.10;7.20;;;13.60;1.00;;;;;;5014291;28;20598;-64
2023/02/04 11:58:24;;;;;;;9.37;7.63;;;13.70;1.00;;;;;;5013802;28;20259;-64
2023/02/04 12:00:51;;;;;;;9.97;6.20;;;13.80;1.00;;;;;;5013526;28;20696;-64
2023/02/04 12:03:28;;;;;;;6.93;5.93;;;13.80;1.00;;;;;;5013868;28;20195;-64
2023/02/04 12:05:54;;;;;;;9.97;5.27;;;13.70;1.00;;;;;;5013607;28;20557;-64
2023/02/04 12:08:23;;;;;;;10.20;5.43;;;13.50;1.00;;;;;;5013833;28;20174;-64
2023/02/04 12:10:57;;;;;;;8.23;5.40;;;13.20;1.00;;;;;;5012846;28;20199;-64
2023/02/04 12:13:24;;;;;;;12.03;6.50;;;12.90;1.00;;;;;;4994377;28;20551;-64
2023/02/04 12:16:05;;;;;;;15.33;5.90;;;12.70;1.00;;;;;;4994134;28;20227;-64
2023/02/04 12:18:33;;;;;;;6.50;5.73;;;12.60;1.00;;;;;;4994149;28;20172;-64
2023/02/04 12:20:59;;;;;;;6.50;5.57;;;12.80;1.00;;;;;;5003286;28;20215;-64
2023/02/04 12:23:26;;;;;;;14.27;5.93;;;12.80;1.00;;;;;;5013987;28;20259;-65
2023/02/04 12:25:52;;;;;;;11.43;6.33;;;12.80;1.00;;;;;;5013157;28;20566;-63
2023/02/04 12:28:18;;;;;;;11.40;6.57;;;12.80;1.00;;;;;;5027522;28;20268;-64
2023/02/04 12:30:44;;;;;;;8.20;5.70;;;12.90;1.00;;;;;;5012146;28;20259;-64
2023/02/04 12:33:10;;;;;;;10.43;6.17;;;13.20;1.00;;;;;;5013459;28;20642;-63
2023/02/04 12:35:36;;;;;;;5.73;4.90;;;13.10;1.00;;;;;;5013312;28;20672;-63
2023/02/04 12:38:02;;;;;;;12.60;6.20;;;12.90;1.00;;;;;;5013362;28;20263;-64
2023/02/04 12:40:28;;;;;;;12.47;5.37;;;12.60;1.00;;;;;;5012551;28;20215;-63
2023/02/04 12:42:53;;;;;;;6.00;5.50;;;12.40;1.00;;;;;;5013242;28;20173;-64
2023/02/04 12:45:19;;;;;;;7.93;5.47;;;12.20;1.00;;;;;;5012943;28;20245;-64
2023/02/04 12:47:45;;;;;;;15.20;6.90;;;12.30;1.00;;;;;;5012678;28;20635;-64
2023/02/04 12:50:13;;;;;;;9.73;5.63;;;12.40;1.00;;;;;;5012305;28;20676;-64
2023/02/04 12:52:39;;;;;;;13.93;7.53;;;12.50;1.00;;;;;;5013166;28;20258;-64